createdAt,value
2022-11-29T00:00:40.017Z,103012.19
2022-11-29T00:01:42.435Z,103008.63
2022-11-29T00:02:44.279Z,103009.59
2022-11-29T00:03:46.505Z,103013.22
2022-11-29T00:04:48.315Z,103011.41
2022-11-29T00:05:51.612Z,103005.31
2022-11-29T00:06:53.318Z,103007.03
2022-11-29T00:07:55.083Z,103000.34
2022-11-29T00:08:59.634Z,103011.63
2022-11-29T00:10:01.308Z,103007.03
2022-11-29T00:11:07.660Z,103011.63
2022-11-29T00:12:12.559Z,103016.03
2022-11-29T00:13:14.391Z,102995.25
2022-11-29T00:14:18.797Z,103003.78
2022-11-29T00:15:20.570Z,103006.25
2022-11-29T00:16:22.313Z,103001.84
2022-11-29T00:17:24.065Z,103006.34
2022-11-29T00:18:25.757Z,103011.72
2022-11-29T00:19:28.132Z,102994.28
2022-11-29T00:20:29.840Z,103003.78
2022-11-29T00:21:31.497Z,103001.19
2022-11-29T00:22:33.352Z,103003.78
2022-11-29T00:23:36.110Z,103002.06
2022-11-29T00:24:37.951Z,102986.50
2022-11-29T00:25:39.658Z,103007.44
2022-11-29T00:26:41.361Z,103007.44
2022-11-29T00:27:43.034Z,103005.72
2022-11-29T00:28:44.833Z,103002.16
2022-11-29T00:29:46.513Z,103002.06
2022-11-29T00:30:48.337Z,103004.00
2022-11-29T00:31:50.133Z,102998.63
2022-11-29T00:32:51.952Z,102991.78
2022-11-29T00:33:53.668Z,103005.78
2022-11-29T00:34:59.233Z,102994.34
2022-11-29T00:36:01.586Z,102978.88
2022-11-29T00:37:03.836Z,102998.63
2022-11-29T00:38:05.528Z,103006.66
2022-11-29T00:39:11.714Z,103005.78
2022-11-29T00:40:13.732Z,103012.88
2022-11-29T00:41:15.847Z,103004.00
2022-11-29T00:42:17.689Z,103005.88
2022-11-29T00:43:19.486Z,103000.50
2022-11-29T00:44:21.539Z,103012.13
2022-11-29T00:45:23.215Z,102996.50
2022-11-29T00:46:25.385Z,103000.59
2022-11-29T00:47:27.396Z,103007.69
2022-11-29T00:48:29.110Z,102983.28
2022-11-29T00:49:30.909Z,102989.59
2022-11-29T00:50:32.639Z,102999.72
2022-11-29T00:51:34.396Z,103005.09
2022-11-29T00:52:36.133Z,103002.53
2022-11-29T00:53:38.252Z,103006.03
2022-11-29T00:54:39.916Z,103002.53
2022-11-29T00:55:41.583Z,103007.88
2022-11-29T00:56:43.452Z,103009.69
2022-11-29T00:57:45.250Z,103004.31
2022-11-29T00:58:48.589Z,102994.22
2022-11-29T00:59:50.255Z,103007.88
2022-11-29T01:00:53.566Z,102999.38
2022-11-29T01:01:55.321Z,102995.94
2022-11-29T01:02:57.000Z,103012.38
2022-11-29T01:04:00.678Z,102999.16
2022-11-29T01:05:02.341Z,102980.44
2022-11-29T01:06:07.359Z,103000.25
2022-11-29T01:07:09.100Z,103004.31
2022-11-29T01:08:13.306Z,102999.47
2022-11-29T01:09:15.010Z,103005.28
2022-11-29T01:10:17.099Z,103005.41
2022-11-29T01:11:22.335Z,103006.38
2022-11-29T01:12:24.037Z,103000.88
2022-11-29T01:13:25.820Z,103005.41
2022-11-29T01:14:27.504Z,103001.84
2022-11-29T01:15:29.373Z,102994.22
2022-11-29T01:16:31.954Z,102993.25
2022-11-29T01:17:37.906Z,103001.09
2022-11-29T01:18:39.721Z,103005.50
2022-11-29T01:19:45.180Z,102992.41
2022-11-29T01:21:01.194Z,102999.16
2022-11-29T01:22:02.928Z,102995.31
2022-11-29T01:23:04.694Z,102999.16
2022-11-29T01:24:06.430Z,103002.72
2022-11-29T01:25:10.962Z,102993.03
2022-11-29T01:26:18.530Z,102998.41
2022-11-29T01:27:20.483Z,103000.13
2022-11-29T01:28:22.365Z,102997.56
2022-11-29T01:29:24.656Z,103001.09
2022-11-29T01:30:26.497Z,103003.78
2022-11-29T01:31:31.114Z,103000.31
2022-11-29T01:32:32.850Z,103000.25
2022-11-29T01:33:35.064Z,102981.13
2022-11-29T01:34:37.421Z,102994.13
2022-11-29T01:35:39.121Z,102999.38
2022-11-29T01:36:40.909Z,103000.66
2022-11-29T01:37:42.608Z,102970.97
2022-11-29T01:38:44.424Z,103001.28
2022-11-29T01:39:46.214Z,102994.22
2022-11-29T01:41:00.162Z,102997.66
2022-11-29T01:42:02.368Z,103001.09
2022-11-29T01:43:18.792Z,103002.06
2022-11-29T01:44:20.776Z,102998.31
2022-11-29T01:45:25.853Z,103001.22
2022-11-29T01:46:33.556Z,102992.28
2022-11-29T01:47:44.540Z,103000.25
2022-11-29T01:48:46.452Z,102997.56
2022-11-29T01:49:50.508Z,102995.94
2022-11-29T01:50:54.671Z,102995.09
2022-11-29T01:52:02.590Z,102993.38
2022-11-29T01:53:04.925Z,102985.59
2022-11-29T01:54:10.126Z,102996.13
2022-11-29T01:55:12.781Z,102996.88
2022-11-29T01:56:15.810Z,102996.13
2022-11-29T01:57:19.307Z,102997.97
2022-11-29T01:58:21.397Z,103002.44
2022-11-29T01:59:27.330Z,102993.56
2022-11-29T02:00:29.745Z,102996.13
2022-11-29T02:01:31.594Z,102994.41
2022-11-29T02:02:41.625Z,103000.72
2022-11-29T02:03:43.346Z,103003.22
2022-11-29T02:04:47.130Z,102999.78
2022-11-29T02:05:51.684Z,103000.66
2022-11-29T02:06:53.437Z,102982.38
2022-11-29T02:07:57.572Z,102999.00
2022-11-29T02:08:59.377Z,102996.25
2022-11-29T02:10:02.978Z,103002.56
2022-11-29T02:11:28.201Z,102998.53
2022-11-29T02:12:38.910Z,103000.44
2022-11-29T02:13:46.428Z,102995.28
2022-11-29T02:15:23.464Z,103007.13
2022-11-29T02:17:02.059Z,103005.41
2022-11-29T02:18:09.514Z,103011.41
2022-11-29T02:19:35.685Z,103007.00
2022-11-29T02:21:04.015Z,102991.88
2022-11-29T02:22:23.266Z,103007.97
2022-11-29T02:23:27.683Z,103001.09
2022-11-29T02:25:11.879Z,103004.66
2022-11-29T02:26:39.789Z,103009.91
2022-11-29T02:28:18.011Z,103006.03
2022-11-29T02:29:46.897Z,103007.00
2022-11-29T02:31:15.682Z,102999.09
2022-11-29T02:33:05.119Z,103006.91
2022-11-29T02:34:06.818Z,103007.88
2022-11-29T02:35:23.800Z,103010.09
2022-11-29T02:36:37.559Z,103003.00
2022-11-29T02:37:58.532Z,102992.81
2022-11-29T02:39:18.892Z,103003.22
2022-11-29T02:40:48.087Z,103009.25
2022-11-29T02:42:04.868Z,103003.97
2022-11-29T02:43:25.540Z,103010.41
2022-11-29T02:44:59.220Z,103012.03
2022-11-29T02:46:03.666Z,103009.34
2022-11-29T02:47:24.492Z,103009.66
2022-11-29T02:48:41.674Z,103009.47
2022-11-29T02:50:10.726Z,103006.84
2022-11-29T02:51:22.662Z,103008.56
2022-11-29T02:52:53.508Z,103004.72
2022-11-29T02:54:43.328Z,103010.97
2022-11-29T02:56:04.630Z,103015.16
2022-11-29T02:57:22.020Z,103004.72
2022-11-29T02:58:42.194Z,103010.09
2022-11-29T03:00:07.952Z,103015.47
2022-11-29T03:01:21.523Z,103010.50
2022-11-29T03:02:34.663Z,103005.25
2022-11-29T03:03:48.387Z,103010.63
2022-11-29T03:05:12.158Z,103009.53
2022-11-29T03:06:38.490Z,103003.53
2022-11-29T03:08:13.113Z,103006.78
2022-11-29T03:09:45.228Z,103010.09
2022-11-29T03:11:13.048Z,103007.72
2022-11-29T03:12:30.348Z,102995.56
2022-11-29T03:13:59.782Z,103015.84
2022-11-29T03:15:20.360Z,103006.66
2022-11-29T03:16:30.051Z,103011.38
2022-11-29T03:17:53.395Z,103010.50
2022-11-29T03:19:07.422Z,103006.28
2022-11-29T03:20:35.424Z,103006.09
2022-11-29T03:21:59.166Z,103000.66
2022-11-29T03:23:15.064Z,103002.56
2022-11-29T03:24:30.280Z,103007.06
2022-11-29T03:25:53.496Z,102992.41
2022-11-29T03:27:13.409Z,102999.78
2022-11-29T03:28:21.644Z,103001.81
2022-11-29T03:29:38.687Z,102997.28
2022-11-29T03:30:47.988Z,103005.53
2022-11-29T03:32:03.863Z,102997.41
2022-11-29T03:33:24.346Z,102998.44
2022-11-29T03:34:44.488Z,103003.63
2022-11-29T03:36:14.972Z,103002.44
2022-11-29T03:37:21.775Z,102998.16
2022-11-29T03:38:40.548Z,102992.13
2022-11-29T03:39:50.676Z,102997.50
2022-11-29T03:41:07.291Z,102993.94
2022-11-29T03:42:16.330Z,102996.63
2022-11-29T03:43:36.969Z,103005.53
2022-11-29T03:44:46.867Z,102999.41
2022-11-29T03:45:56.723Z,102996.72
2022-11-29T03:47:13.975Z,102998.44
2022-11-29T03:48:31.357Z,103000.38
2022-11-29T03:49:45.741Z,102986.28
2022-11-29T03:51:26.349Z,102997.84
2022-11-29T03:52:50.987Z,102995.16
2022-11-29T03:54:02.600Z,102997.22
2022-11-29T03:55:22.441Z,103001.91
2022-11-29T03:56:29.361Z,102989.44
2022-11-29T03:57:56.892Z,103000.38
2022-11-29T03:59:10.849Z,102996.53
2022-11-29T04:00:14.267Z,102998.44
2022-11-29T04:01:35.252Z,102985.66
2022-11-29T04:02:57.219Z,102995.78
2022-11-29T04:04:08.141Z,102999.28
2022-11-29T04:05:47.062Z,102999.22
2022-11-29T04:07:17.603Z,102991.72
2022-11-29T04:08:56.808Z,103002.38
2022-11-29T04:10:27.557Z,103001.50
2022-11-29T04:12:04.690Z,103006.00
2022-11-29T04:13:35.572Z,103002.56
2022-11-29T04:14:52.102Z,102998.06
2022-11-29T04:16:37.039Z,103003.41
2022-11-29T04:17:47.926Z,102997.22
2022-11-29T04:19:13.984Z,103000.94
2022-11-29T04:20:42.036Z,102990.97
2022-11-29T04:22:04.649Z,102994.81
2022-11-29T04:23:15.587Z,103004.66
2022-11-29T04:24:29.157Z,102998.66
2022-11-29T04:26:00.144Z,103002.84
2022-11-29T04:27:26.548Z,102999.41
2022-11-29T04:28:41.645Z,103000.25
2022-11-29T04:29:55.177Z,103005.75
2022-11-29T04:31:18.061Z,103001.41
2022-11-29T04:32:40.859Z,103005.81
2022-11-29T04:34:04.073Z,103001.91
2022-11-29T04:35:26.474Z,103008.41
2022-11-29T04:36:38.796Z,103009.19
2022-11-29T04:38:20.417Z,103007.25
2022-11-29T04:39:37.309Z,103001.06
2022-11-29T04:41:06.421Z,103010.03
2022-11-29T04:42:43.233Z,103007.06
2022-11-29T04:43:44.989Z,103011.66
2022-11-29T04:44:47.008Z,103008.63
2022-11-29T04:46:27.096Z,103007.66
2022-11-29T04:47:42.437Z,103014.63
2022-11-29T04:48:54.597Z,103016.66
2022-11-29T04:50:05.706Z,103018.38
2022-11-29T04:51:35.968Z,103011.94
2022-11-29T04:53:08.542Z,103017.31
2022-11-29T04:54:23.619Z,103011.78
2022-11-29T04:55:57.635Z,103018.38
2022-11-29T04:57:05.662Z,103012.81
2022-11-29T04:58:13.327Z,103012.16
2022-11-29T04:59:41.418Z,103011.50
2022-11-29T05:00:58.203Z,103018.47
2022-11-29T05:02:15.049Z,103023.75
2022-11-29T05:03:26.708Z,103014.94
2022-11-29T05:05:05.403Z,103027.00
2022-11-29T05:06:23.841Z,103024.38
2022-11-29T05:07:36.069Z,103023.75
2022-11-29T05:09:13.130Z,103025.47
2022-11-29T05:10:45.019Z,103027.75
2022-11-29T05:12:03.309Z,103023.34
2022-11-29T05:13:14.280Z,103026.41
2022-11-29T05:14:50.253Z,103020.88
2022-11-29T05:16:26.217Z,103024.31
2022-11-29T05:17:51.311Z,103027.94
2022-11-29T05:19:19.542Z,103009.38
2022-11-29T05:20:48.645Z,103020.75
2022-11-29T05:21:56.543Z,103032.53
2022-11-29T05:23:31.786Z,103022.78
2022-11-29T05:24:33.530Z,103024.59
2022-11-29T05:25:47.293Z,103025.88
2022-11-29T05:26:58.138Z,103028.63
2022-11-29T05:28:16.377Z,103023.19
2022-11-29T05:29:46.250Z,103019.53
2022-11-29T05:31:11.782Z,103030.81
2022-11-29T05:32:50.673Z,103025.25
2022-11-29T05:34:23.165Z,103031.38
2022-11-29T05:36:00.093Z,103025.06
2022-11-29T05:37:13.857Z,103025.25
2022-11-29T05:38:49.253Z,103029.00
2022-11-29T05:40:09.282Z,103026.22
2022-11-29T05:41:32.081Z,103020.09
2022-11-29T05:42:38.643Z,103029.09
2022-11-29T05:44:04.813Z,103023.94
2022-11-29T05:45:23.561Z,103020.38
2022-11-29T05:46:36.586Z,103030.16
2022-11-29T05:47:53.145Z,103026.72
2022-11-29T05:49:05.093Z,103020.50
2022-11-29T05:50:23.105Z,103029.50
2022-11-29T05:51:42.242Z,103023.94
2022-11-29T05:53:16.814Z,103020.19
2022-11-29T05:54:30.960Z,103024.69
2022-11-29T05:55:52.667Z,103029.31
2022-11-29T05:57:13.950Z,103021.25
2022-11-29T05:58:47.786Z,103030.63
2022-11-29T05:59:51.321Z,103024.69
2022-11-29T06:01:37.144Z,103027.94
2022-11-29T06:02:56.922Z,103022.88
2022-11-29T06:03:58.630Z,103031.78
2022-11-29T06:05:06.700Z,103029.50
2022-11-29T06:06:14.354Z,103025.28
2022-11-29T06:07:27.398Z,102986.44
2022-11-29T06:08:58.514Z,103028.22
2022-11-29T06:10:06.884Z,103033.69
2022-11-29T06:11:25.655Z,103029.94
2022-11-29T06:12:30.885Z,103032.63
2022-11-29T06:14:01.805Z,103028.22
2022-11-29T06:15:30.566Z,103013.50
2022-11-29T06:16:39.273Z,103025.63
2022-11-29T06:18:14.000Z,103033.47
2022-11-29T06:19:29.612Z,103031.16
2022-11-29T06:21:07.835Z,103024.75
2022-11-29T06:22:21.481Z,103021.81
2022-11-29T06:23:48.749Z,103031.25
2022-11-29T06:25:09.468Z,103029.44
2022-11-29T06:26:25.260Z,103023.75
2022-11-29T06:27:36.736Z,103028.16
2022-11-29T06:28:51.672Z,103029.78
2022-11-29T06:30:07.133Z,103033.03
2022-11-29T06:31:38.190Z,103022.41
2022-11-29T06:32:55.191Z,103027.72
2022-11-29T06:34:20.033Z,103035.28
2022-11-29T06:35:47.617Z,103032.03
2022-11-29T06:37:04.971Z,103040.00
2022-11-29T06:38:26.453Z,103033.56
2022-11-29T06:39:28.367Z,103035.19
2022-11-29T06:40:30.650Z,103034.31
2022-11-29T06:41:32.603Z,103020.47
2022-11-29T06:42:34.392Z,103034.22
2022-11-29T06:43:36.438Z,103031.41
2022-11-29T06:44:38.541Z,103034.00
2022-11-29T06:45:47.745Z,103020.06
2022-11-29T06:47:00.078Z,103039.72
2022-11-29T06:48:04.213Z,103029.66
2022-11-29T06:49:20.839Z,103032.22
2022-11-29T06:50:45.933Z,103037.16
2022-11-29T06:52:24.935Z,103037.44
2022-11-29T06:53:32.579Z,103040.78
2022-11-29T06:55:01.864Z,103040.78
2022-11-29T06:56:29.492Z,103042.06
2022-11-29T06:57:51.891Z,103042.06
2022-11-29T06:59:03.280Z,103042.06
2022-11-29T07:00:15.461Z,103045.72
2022-11-29T07:01:52.392Z,103052.81
2022-11-29T07:03:52.625Z,103053.81
2022-11-29T07:05:36.080Z,103043.81
2022-11-29T07:06:39.028Z,103045.53
2022-11-29T07:07:41.726Z,103054.00
2022-11-29T07:08:44.553Z,103059.69
2022-11-29T07:09:49.430Z,103051.72
2022-11-29T07:10:54.957Z,103033.91
2022-11-29T07:11:56.990Z,103049.38
2022-11-29T07:12:59.289Z,103058.06
2022-11-29T07:14:01.337Z,103059.91
2022-11-29T07:15:03.466Z,103058.41
2022-11-29T07:16:21.950Z,103063.44
2022-11-29T07:17:54.332Z,103061.19
2022-11-29T07:19:26.974Z,103067.88
2022-11-29T07:20:40.914Z,103073.22
2022-11-29T07:21:55.202Z,103064.41
2022-11-29T07:23:17.816Z,103067.03
2022-11-29T07:24:49.393Z,103066.69
2022-11-29T07:26:28.370Z,103071.84
2022-11-29T07:27:41.639Z,103065.63
2022-11-29T07:29:11.437Z,103069.38
2022-11-29T07:30:15.390Z,103071.09
2022-11-29T07:31:41.656Z,103071.97
2022-11-29T07:33:11.329Z,103079.69
2022-11-29T07:34:31.051Z,103069.16
2022-11-29T07:35:54.945Z,103071.84
2022-11-29T07:37:20.469Z,103063.25
2022-11-29T07:38:31.131Z,103075.41
2022-11-29T07:39:53.835Z,103071.09
2022-11-29T07:41:25.306Z,103065.94
2022-11-29T07:42:31.512Z,103075.28
2022-11-29T07:44:03.053Z,103069.91
2022-11-29T07:45:21.422Z,103059.06
2022-11-29T07:46:23.407Z,103064.34
2022-11-29T07:47:25.359Z,103081.09
2022-11-29T07:48:27.062Z,103077.63
2022-11-29T07:49:28.778Z,103070.00
2022-11-29T07:50:31.640Z,103069.03
2022-11-29T07:51:33.425Z,103075.16
2022-11-29T07:52:35.325Z,103076.06
2022-11-29T07:53:41.921Z,103069.25
2022-11-29T07:54:44.416Z,103080.53
2022-11-29T07:55:46.835Z,103079.56
2022-11-29T07:56:48.529Z,103078.59
2022-11-29T07:57:51.004Z,103077.84
2022-11-29T07:58:52.828Z,103082.25
2022-11-29T07:59:54.520Z,103080.53
2022-11-29T08:00:56.253Z,103078.59
2022-11-29T08:01:58.920Z,103083.13
2022-11-29T08:03:00.706Z,103083.97
2022-11-29T08:04:02.413Z,103083.22
2022-11-29T08:05:04.365Z,103082.25
2022-11-29T08:06:06.383Z,103077.75
2022-11-29T08:07:08.138Z,103075.94
2022-11-29T08:08:09.829Z,103081.28
2022-11-29T08:09:11.575Z,103076.88
2022-11-29T08:10:15.548Z,103075.09
2022-11-29T08:11:17.230Z,103078.59
2022-11-29T08:12:19.016Z,103074.19
2022-11-29T08:13:21.520Z,103069.78
2022-11-29T08:14:23.412Z,103073.22
2022-11-29T08:15:25.963Z,103076.81
2022-11-29T08:16:27.960Z,103069.59
2022-11-29T08:17:29.722Z,103074.97
2022-11-29T08:18:31.397Z,103074.97
2022-11-29T08:19:33.232Z,103073.22
2022-11-29T08:20:36.010Z,103071.44
2022-11-29T08:21:37.692Z,103072.28
2022-11-29T08:22:39.533Z,103068.75
2022-11-29T08:23:41.263Z,103080.34
2022-11-29T08:24:44.089Z,103080.34
2022-11-29T08:25:46.151Z,103056.78
2022-11-29T08:26:48.182Z,103065.50
2022-11-29T08:27:50.194Z,103075.84
2022-11-29T08:28:52.617Z,103077.56
2022-11-29T08:29:54.514Z,103070.47
2022-11-29T08:31:08.110Z,103078.41
2022-11-29T08:32:09.881Z,103073.78
2022-11-29T08:33:11.632Z,103058.41
2022-11-29T08:34:13.550Z,103076.59
2022-11-29T08:35:16.084Z,103074.88
2022-11-29T08:36:19.962Z,103065.31
2022-11-29T08:37:21.730Z,103071.31
2022-11-29T08:38:23.549Z,103073.91
2022-11-29T08:39:25.355Z,103076.69
2022-11-29T08:40:27.242Z,103071.31
2022-11-29T08:41:30.400Z,103079.38
2022-11-29T08:42:32.170Z,103075.94
2022-11-29T08:43:33.982Z,103069.72
2022-11-29T08:44:35.721Z,103074.19
2022-11-29T08:45:37.588Z,103057.75
2022-11-29T08:46:57.796Z,103073.16
2022-11-29T08:47:59.465Z,103059.06
2022-11-29T08:49:01.345Z,103076.47
2022-11-29T08:50:04.298Z,103072.19
2022-11-29T08:51:06.986Z,103066.34
2022-11-29T08:52:27.315Z,103062.69
2022-11-29T08:53:46.311Z,103073.69
2022-11-29T08:54:48.432Z,103082.38
2022-11-29T08:55:50.564Z,103074.88
2022-11-29T08:58:15.413Z,103078.09
2022-11-29T08:59:17.112Z,103076.47
2022-11-29T09:00:21.458Z,103080.13
2022-11-29T09:01:23.237Z,103078.41
2022-11-29T09:02:25.138Z,103064.53
2022-11-29T09:03:45.506Z,103064.84
2022-11-29T09:04:47.308Z,103082.59
2022-11-29T09:05:49.270Z,103083.69
2022-11-29T09:06:50.974Z,103081.97
2022-11-29T09:07:52.726Z,103081.09
2022-11-29T09:08:58.814Z,103066.16
2022-11-29T09:10:05.065Z,103076.69
2022-11-29T09:11:14.126Z,103082.03
2022-11-29T09:12:16.022Z,103074.75
2022-11-29T09:13:18.265Z,103075.72
2022-11-29T09:14:22.338Z,103073.03
2022-11-29T09:15:24.197Z,103078.41
2022-11-29T09:16:28.440Z,103071.31
2022-11-29T09:17:30.244Z,103076.69
2022-11-29T09:18:31.961Z,103076.69
2022-11-29T09:19:33.653Z,103075.84
2022-11-29T09:20:35.566Z,103071.31
2022-11-29T09:21:37.300Z,103074.00
2022-11-29T09:22:38.985Z,103075.84
2022-11-29T09:23:42.305Z,103074.13
2022-11-29T09:24:44.596Z,103071.31
2022-11-29T09:25:49.850Z,103069.59
2022-11-29T09:26:51.562Z,103066.16
2022-11-29T09:27:53.322Z,103075.84
2022-11-29T09:28:55.513Z,103072.19
2022-11-29T09:29:57.187Z,103064.63
2022-11-29T09:31:14.413Z,103075.72
2022-11-29T09:32:16.439Z,103083.56
2022-11-29T09:33:18.277Z,103080.13
2022-11-29T09:34:20.000Z,103078.41
2022-11-29T09:35:21.775Z,103082.94
2022-11-29T09:36:28.390Z,103081.22
2022-11-29T09:37:30.819Z,103076.69
2022-11-29T09:38:33.481Z,103052.59
2022-11-29T09:39:35.440Z,103068.19
2022-11-29T09:40:50.102Z,103077.56
2022-11-29T09:42:07.697Z,103085.50
2022-11-29T09:43:34.656Z,103083.47
2022-11-29T09:44:45.471Z,103084.09
2022-11-29T09:45:55.465Z,103085.28
2022-11-29T09:47:19.954Z,103084.97
2022-11-29T09:48:44.003Z,103083.13
2022-11-29T09:50:00.038Z,103082.28
2022-11-29T09:51:11.944Z,103088.50
2022-11-29T09:52:52.714Z,103087.56
2022-11-29T09:54:00.485Z,103090.13
2022-11-29T09:55:35.957Z,103092.81
2022-11-29T09:56:44.573Z,103091.19
2022-11-29T09:57:48.513Z,103094.09
2022-11-29T09:59:02.041Z,103088.94
2022-11-29T10:00:07.015Z,103088.19
2022-11-29T10:01:13.773Z,103088.31
2022-11-29T10:02:34.366Z,103091.53
2022-11-29T10:03:44.575Z,103097.97
2022-11-29T10:05:10.409Z,103099.69
2022-11-29T10:06:19.043Z,103089.69
2022-11-29T10:07:23.520Z,103092.59
2022-11-29T10:08:35.635Z,103096.25
2022-11-29T10:09:47.958Z,103093.56
2022-11-29T10:10:53.063Z,103096.25
2022-11-29T10:12:13.644Z,103096.25
2022-11-29T10:13:29.841Z,103094.31
2022-11-29T10:15:14.020Z,103093.34
2022-11-29T10:16:25.047Z,103092.06
2022-11-29T10:17:36.337Z,103103.03
2022-11-29T10:19:02.501Z,103096.03
2022-11-29T10:20:15.585Z,103088.72
2022-11-29T10:21:25.823Z,103098.63
2022-11-29T10:22:46.040Z,103093.47
2022-11-29T10:23:53.430Z,103098.72
2022-11-29T10:24:59.468Z,103101.41
2022-11-29T10:26:01.272Z,103103.34
2022-11-29T10:27:29.686Z,103100.84
2022-11-29T10:28:33.568Z,103098.84
2022-11-29T10:29:35.360Z,103091.75
2022-11-29T10:30:37.520Z,103101.63
2022-11-29T10:31:43.390Z,103101.75
2022-11-29T10:32:48.712Z,103080.97
2022-11-29T10:33:50.584Z,103106.16
2022-11-29T10:34:52.408Z,103103.53
2022-11-29T10:35:59.800Z,103104.50
2022-11-29T10:37:02.800Z,103106.16
2022-11-29T10:38:29.756Z,103105.28
2022-11-29T10:39:37.387Z,103096.25
2022-11-29T10:40:42.407Z,103089.34
2022-11-29T10:41:44.236Z,103101.41
2022-11-29T10:42:49.441Z,103086.66
2022-11-29T10:43:52.456Z,103096.25
2022-11-29T10:44:54.153Z,103104.22
2022-11-29T10:45:56.850Z,103096.25
2022-11-29T10:47:05.436Z,103101.63
2022-11-29T10:48:31.850Z,103096.16
2022-11-29T10:49:36.791Z,103101.19
2022-11-29T10:50:42.746Z,103096.91
2022-11-29T10:51:46.534Z,103099.59
2022-11-29T10:52:48.329Z,103102.28
2022-11-29T10:53:52.969Z,103103.34
2022-11-29T10:54:58.696Z,103096.25
2022-11-29T10:56:18.353Z,103099.47
2022-11-29T10:57:22.882Z,103098.50
2022-11-29T10:58:29.044Z,103102.16
2022-11-29T10:59:33.120Z,103093.47
2022-11-29T11:01:08.684Z,103093.47
2022-11-29T11:02:20.205Z,103104.44
2022-11-29T11:03:53.185Z,103101.63
2022-11-29T11:04:55.427Z,103106.16
2022-11-29T11:06:18.593Z,103105.28
2022-11-29T11:07:36.060Z,103100.03
2022-11-29T11:08:41.225Z,103102.06
2022-11-29T11:09:50.956Z,103101.19
2022-11-29T11:11:01.232Z,103096.03
2022-11-29T11:12:06.903Z,103105.72
2022-11-29T11:13:22.680Z,103100.22
2022-11-29T11:14:28.394Z,103100.34
2022-11-29T11:15:32.121Z,103104.84
2022-11-29T11:16:37.335Z,103101.41
2022-11-29T11:17:42.259Z,103079.78
2022-11-29T11:18:45.686Z,103087.53
2022-11-29T11:19:54.842Z,103101.41
2022-11-29T11:20:59.998Z,103088.50
2022-11-29T11:22:03.685Z,103104.22
2022-11-29T11:23:27.301Z,103106.56
2022-11-29T11:24:36.002Z,103091.63
2022-11-29T11:25:39.645Z,103104.84
2022-11-29T11:26:43.911Z,103106.78
2022-11-29T11:27:45.925Z,103102.28
2022-11-29T11:29:02.653Z,103101.53
2022-11-29T11:30:08.084Z,103097.00
2022-11-29T11:31:12.529Z,103101.41
2022-11-29T11:32:19.587Z,103099.69
2022-11-29T11:33:27.696Z,103105.06
2022-11-29T11:34:36.733Z,103105.94
2022-11-29T11:35:38.455Z,103112.16
2022-11-29T11:36:40.218Z,103102.38
2022-11-29T11:37:41.999Z,103095.28
2022-11-29T11:38:49.804Z,103099.91
2022-11-29T11:39:57.347Z,103101.63
2022-11-29T11:41:56.756Z,103100.22
2022-11-29T11:43:00.658Z,103099.81
2022-11-29T11:44:04.509Z,103092.50
2022-11-29T11:45:12.638Z,103098.41
2022-11-29T11:46:18.000Z,103102.28
2022-11-29T11:47:24.457Z,103103.34
2022-11-29T11:48:26.875Z,103095.28
2022-11-29T11:49:49.432Z,103096.91
2022-11-29T11:50:54.026Z,103096.91
2022-11-29T11:51:57.329Z,103101.53
2022-11-29T11:53:05.046Z,103086.13
2022-11-29T11:54:15.021Z,103096.16
2022-11-29T11:55:31.965Z,103097.00
2022-11-29T11:56:35.922Z,103098.63
2022-11-29T11:57:37.739Z,103087.22
2022-11-29T11:58:49.115Z,103094.44
2022-11-29T11:59:53.304Z,103091.75
2022-11-29T12:01:04.358Z,103091.06
2022-11-29T12:02:36.757Z,103093.34
2022-11-29T12:03:57.553Z,103093.69
2022-11-29T12:05:02.544Z,103099.25
2022-11-29T12:06:39.598Z,103102.72
2022-11-29T12:08:07.670Z,103100.78
2022-11-29T12:09:18.738Z,103107.13
2022-11-29T12:10:32.558Z,103111.75
2022-11-29T12:12:03.678Z,103104.75
2022-11-29T12:13:05.474Z,103104.53
2022-11-29T12:14:08.340Z,103111.09
2022-11-29T12:15:20.342Z,103102.38
2022-11-29T12:16:34.328Z,103089.47
2022-11-29T12:17:49.341Z,103107.53
2022-11-29T12:18:56.485Z,103103.34
2022-11-29T12:20:18.071Z,103106.56
2022-11-29T12:21:26.519Z,103110.22
2022-11-29T12:22:34.221Z,103092.81
2022-11-29T12:23:59.153Z,103102.91
2022-11-29T12:25:06.679Z,103104.84
2022-11-29T12:26:55.402Z,103093.56
2022-11-29T12:27:49.302Z,103104.63
2022-11-29T12:28:51.341Z,103105.72
2022-11-29T12:29:53.264Z,103105.06
2022-11-29T12:31:10.058Z,103099.91
2022-11-29T12:32:42.783Z,103106.56
2022-11-29T12:34:23.009Z,103102.91
2022-11-29T12:35:39.683Z,103100.78
2022-11-29T12:36:47.203Z,103105.50
2022-11-29T12:38:06.531Z,103095.81
2022-11-29T12:39:26.344Z,103103.03
2022-11-29T12:40:54.261Z,103104.84
2022-11-29T12:42:04.337Z,103107.31
2022-11-29T12:43:21.565Z,103106.47
2022-11-29T12:44:48.312Z,103107.53
2022-11-29T12:46:11.729Z,103104.63
2022-11-29T12:47:38.542Z,103100.13
2022-11-29T12:49:06.609Z,103103.56
2022-11-29T12:50:40.914Z,103108.94
2022-11-29T12:52:24.518Z,103106.16
2022-11-29T12:53:43.665Z,103095.63
2022-11-29T12:55:26.370Z,103105.72
2022-11-29T12:57:01.906Z,103103.34
2022-11-29T12:58:45.871Z,103104.00
2022-11-29T13:00:11.562Z,103102.28
2022-11-29T13:01:25.183Z,103108.94
2022-11-29T13:02:45.204Z,103109.06
2022-11-29T13:04:15.995Z,103109.81
2022-11-29T13:05:23.874Z,103101.00
2022-11-29T13:06:44.296Z,103111.09
2022-11-29T13:08:23.747Z,103103.69
2022-11-29T13:09:44.229Z,103106.25
2022-11-29T13:11:19.399Z,103100.03
2022-11-29T13:12:25.850Z,103105.41
2022-11-29T13:13:46.041Z,103108.09
2022-11-29T13:15:15.027Z,103099.06
2022-11-29T13:16:30.820Z,103104.53
2022-11-29T13:17:40.178Z,103105.50
2022-11-29T13:19:02.484Z,103107.22
2022-11-29T13:20:19.253Z,103117.13
2022-11-29T13:21:37.171Z,103110.00
2022-11-29T13:22:46.197Z,103119.03
2022-11-29T13:24:09.240Z,103110.00
2022-11-29T13:25:29.476Z,103115.28
2022-11-29T13:26:33.083Z,103113.66
2022-11-29T13:27:42.668Z,103115.72
2022-11-29T13:28:46.675Z,103107.88
2022-11-29T13:29:48.909Z,103110.44
2022-11-29T13:30:52.248Z,103117.75
2022-11-29T13:31:53.997Z,103119.44
2022-11-29T13:33:51.030Z,103109.47
2022-11-29T13:34:56.038Z,103119.59
2022-11-29T13:36:13.320Z,103116.25
2022-11-29T13:37:26.466Z,103116.25
2022-11-29T13:38:42.809Z,103118.84
2022-11-29T13:39:54.526Z,103120.75
2022-11-29T13:41:15.062Z,103119.03
2022-11-29T13:42:34.686Z,103112.81
2022-11-29T13:43:41.536Z,103122.50
2022-11-29T13:44:58.198Z,103117.22
2022-11-29T13:46:20.292Z,103119.91
2022-11-29T13:47:22.678Z,103118.94
2022-11-29T13:48:45.742Z,103126.03
2022-11-29T13:49:55.315Z,103119.91
2022-11-29T13:50:57.875Z,103115.59